Time;durP1;ratioP1;P1;durP2;ratioP2;P2;SDS_P1;SDS_P2;PMS_P1;PMS_P2;Temp;Humidity;BMP_temperature;BMP_pressure;BME280_temperature;BME280_humidity;BME280_pressure;Samples;Min_cycle;Max_cycle;Signal;HPM_P1;HPM_P2
2022/09/06 00:01:11;;;;;;;1.50;0.90;;;23.10;76.50;;;;;;6121989;23;21022;-77
2022/09/06 00:03:38;;;;;;;1.40;0.90;;;23.10;76.00;;;;;;6143843;23;20442;-78
2022/09/06 00:06:07;;;;;;;1.50;0.90;;;23.10;75.90;;;;;;6123219;23;20421;-80
2022/09/06 00:08:34;;;;;;;1.40;0.90;;;23.10;76.30;;;;;;6155355;23;20422;-78
2022/09/06 00:11:02;;;;;;;1.43;0.90;;;23.10;78.30;;;;;;6113427;23;20426;-79
2022/09/06 00:13:29;;;;;;;1.47;0.90;;;23.10;78.60;;;;;;6153911;23;20979;-78
2022/09/06 00:16:04;;;;;;;1.47;0.90;;;23.10;80.00;;;;;;6112844;23;20456;-77
2022/09/06 00:18:31;;;;;;;1.43;0.90;;;23.10;78.30;;;;;;6145185;23;20481;-79
2022/09/06 00:20:59;;;;;;;1.47;0.90;;;23.00;79.60;;;;;;6122795;23;20429;-79
2022/09/06 00:23:29;;;;;;;1.50;0.90;;;22.90;80.40;;;;;;6154661;23;20936;-78
2022/09/06 00:26:03;;;;;;;1.50;0.90;;;22.80;81.30;;;;;;6111691;23;20908;-79
2022/09/06 00:28:30;;;;;;;1.43;0.90;;;22.70;83.80;;;;;;6146056;23;20418;-79
2022/09/06 00:33:55;;;;;;;1.50;0.90;;;22.30;84.20;;;;;;6142999;23;20445;-80
2022/09/06 00:36:46;;;;;;;1.43;0.90;;;22.20;85.50;;;;;;6131602;23;20445;-80
2022/09/06 00:39:13;;;;;;;1.47;0.90;;;22.10;86.80;;;;;;6155571;23;20445;-79
2022/09/06 00:41:41;;;;;;;1.50;0.90;;;22.00;88.10;;;;;;6134907;23;20448;-78
2022/09/06 00:44:09;;;;;;;1.43;0.90;;;21.90;88.50;;;;;;6154447;23;20438;-80
2022/09/06 00:46:42;;;;;;;1.70;1.23;;;21.80;90.50;;;;;;6127946;23;20459;-80
2022/09/06 00:49:20;;;;;;;1.43;0.90;;;21.70;90.70;;;;;;6155476;23;20500;-81
2022/09/06 00:51:54;;;;;;;1.50;0.90;;;21.60;91.60;;;;;;6135179;23;20445;-81
2022/09/06 00:54:25;;;;;;;1.47;0.90;;;21.50;92.10;;;;;;6142518;23;20449;-81
2022/09/06 00:56:52;;;;;;;1.47;0.90;;;21.50;92.80;;;;;;6134938;23;20456;-81
2022/09/06 00:59:22;;;;;;;1.50;1.10;;;21.40;93.30;;;;;;6143038;23;20477;-82
2022/09/06 01:02:30;;;;;;;1.43;0.90;;;21.30;93.70;;;;;;6132969;23;20449;-82
2022/09/06 01:04:58;;;;;;;1.47;0.90;;;21.30;94.30;;;;;;6105273;23;20454;-76
2022/09/06 01:07:40;;;;;;;1.43;0.90;;;21.30;94.70;;;;;;6139323;23;20455;-72
2022/09/06 01:12:47;;;;;;;1.50;0.90;;;21.20;97.80;;;;;;6127792;23;20484;-71
2022/09/06 01:15:24;;;;;;;1.40;0.90;;;21.00;98.20;;;;;;6122627;23;20438;-71
2022/09/06 01:18:19;;;;;;;1.87;1.63;;;20.90;98.20;;;;;;6132431;23;20445;-74
2022/09/06 01:21:03;;;;;;;1.47;0.90;;;20.80;98.20;;;;;;6133095;23;20421;-74
2022/09/06 01:24:01;;;;;;;1.47;0.90;;;20.70;98.20;;;;;;6104326;23;20442;-74
2022/09/06 01:27:11;;;;;;;1.47;0.90;;;20.60;98.20;;;;;;6095133;23;20467;-75
2022/09/06 01:29:45;;;;;;;1.50;0.90;;;20.60;98.20;;;;;;6125070;23;20841;-75
2022/09/06 01:32:22;;;;;;;1.43;0.90;;;20.60;98.20;;;;;;6123710;23;21023;-76
2022/09/06 01:34:58;;;;;;;1.40;0.90;;;20.60;98.20;;;;;;6124451;23;20446;-75
2022/09/06 01:37:25;;;;;;;1.50;0.90;;;20.70;98.20;;;;;;6127932;23;20444;-75
2022/09/06 01:39:52;;;;;;;1.47;0.90;;;20.60;98.20;;;;;;6136068;23;20494;-75
2022/09/06 01:42:23;;;;;;;1.50;0.90;;;20.60;98.20;;;;;;6128069;23;20977;-74
2022/09/06 01:44:55;;;;;;;1.40;0.90;;;20.60;98.20;;;;;;6128057;23;20528;-75
2022/09/06 01:47:34;;;;;;;1.50;0.90;;;20.60;98.20;;;;;;6126531;23;20504;-75
2022/09/06 01:50:32;;;;;;;1.50;0.90;;;20.60;98.20;;;;;;6124335;23;20485;-75
2022/09/06 01:53:09;;;;;;;1.50;0.90;;;20.70;98.20;;;;;;6121635;23;20451;-76
2022/09/06 01:55:45;;;;;;;1.47;0.90;;;20.70;98.20;;;;;;6122154;23;20433;-76
2022/09/06 01:58:30;;;;;;;1.47;0.90;;;20.70;98.20;;;;;;6130889;23;20520;-75
2022/09/06 02:01:04;;;;;;;1.43;0.90;;;20.70;98.20;;;;;;6107992;23;20932;-74
2022/09/06 02:03:37;;;;;;;1.50;0.90;;;20.70;98.20;;;;;;6150055;23;20445;-75
2022/09/06 02:06:07;;;;;;;1.43;0.90;;;20.70;98.20;;;;;;6109012;23;20416;-74
2022/09/06 02:08:38;;;;;;;1.47;0.90;;;20.70;98.20;;;;;;6140357;23;20816;-75
2022/09/06 02:11:08;;;;;;;1.47;0.90;;;20.50;98.20;;;;;;6117170;23;20433;-75
2022/09/06 02:13:38;;;;;;;1.47;0.90;;;20.50;98.20;;;;;;6147467;23;20838;-76
2022/09/06 02:16:09;;;;;;;1.40;0.90;;;20.50;98.20;;;;;;6109009;23;20422;-75
2022/09/06 02:18:41;;;;;;;1.50;0.90;;;20.50;98.20;;;;;;6140711;23;20951;-76
2022/09/06 02:21:11;;;;;;;1.47;0.90;;;20.50;98.20;;;;;;6120057;23;20430;-75
2022/09/06 02:23:40;;;;;;;1.47;0.90;;;20.50;98.20;;;;;;6142805;23;20448;-77
2022/09/06 02:26:12;;;;;;;1.50;0.90;;;20.50;98.20;;;;;;6111657;23;20501;-77
2022/09/06 02:28:40;;;;;;;1.50;0.90;;;20.50;98.20;;;;;;6150782;23;20410;-75
2022/09/06 02:31:16;;;;;;;1.43;0.90;;;20.50;98.20;;;;;;6110408;23;21083;-77
2022/09/06 02:33:45;;;;;;;1.47;0.90;;;20.50;98.20;;;;;;6139365;23;20951;-74
2022/09/06 02:36:14;;;;;;;1.40;0.90;;;20.50;98.20;;;;;;6112334;23;20445;-75
2022/09/06 02:38:43;;;;;;;1.47;0.90;;;20.50;98.20;;;;;;6151313;23;20456;-76
2022/09/06 02:41:10;;;;;;;1.47;0.90;;;20.50;98.20;;;;;;6120093;23;20531;-77
2022/09/06 02:43:37;;;;;;;1.47;0.90;;;20.50;98.20;;;;;;6139142;23;20473;-76
2022/09/06 02:46:04;;;;;;;1.47;1.00;;;20.50;98.20;;;;;;6110927;23;20429;-77
2022/09/06 02:48:33;;;;;;;1.43;0.90;;;20.40;98.20;;;;;;6152680;23;20831;-76
2022/09/06 02:51:03;;;;;;;1.40;0.90;;;20.40;98.20;;;;;;6110565;23;20516;-77
2022/09/06 02:53:30;;;;;;;1.43;0.90;;;20.40;98.20;;;;;;6142229;23;22306;-76
2022/09/06 02:55:58;;;;;;;1.43;0.90;;;20.30;98.20;;;;;;6118817;23;20425;-76
2022/09/06 02:58:25;;;;;;;1.47;1.00;;;20.20;98.20;;;;;;6144562;23;20426;-77
2022/09/06 03:00:53;;;;;;;1.47;0.90;;;20.20;98.20;;;;;;6121353;23;20433;-76
2022/09/06 03:03:20;;;;;;;1.43;0.90;;;20.20;98.20;;;;;;6145077;23;20708;-76
2022/09/06 03:05:50;;;;;;;1.43;0.90;;;20.20;98.20;;;;;;6122628;23;20481;-76
2022/09/06 03:08:18;;;;;;;1.43;0.90;;;20.10;98.20;;;;;;6147692;23;20520;-77
2022/09/06 03:10:49;;;;;;;1.43;0.90;;;20.10;98.20;;;;;;6124616;23;20430;-77
2022/09/06 03:13:16;;;;;;;1.43;0.90;;;20.10;98.20;;;;;;6107428;23;20500;-77
2022/09/06 03:15:44;;;;;;;1.50;0.90;;;20.10;98.20;;;;;;6123052;23;20479;-76
2022/09/06 03:18:11;;;;;;;1.43;0.90;;;20.00;98.20;;;;;;6132892;23;20445;-76
2022/09/06 03:20:38;;;;;;;1.43;0.90;;;20.00;98.20;;;;;;6137501;23;20484;-77
2022/09/06 03:23:09;;;;;;;1.40;0.90;;;20.00;98.20;;;;;;6148533;23;20453;-77
2022/09/06 03:25:37;;;;;;;1.47;0.90;;;19.80;98.20;;;;;;6134547;23;20886;-78
2022/09/06 03:28:07;;;;;;;1.43;0.90;;;19.80;98.20;;;;;;6132207;23;20452;-79
2022/09/06 03:30:34;;;;;;;1.40;0.90;;;19.80;98.20;;;;;;6135790;23;20418;-77
2022/09/06 03:33:01;;;;;;;1.47;0.90;;;19.80;98.20;;;;;;6134803;23;20453;-77
2022/09/06 03:35:28;;;;;;;1.50;0.90;;;19.80;98.20;;;;;;6124727;23;20441;-76
2022/09/06 03:37:58;;;;;;;1.50;1.00;;;19.80;98.20;;;;;;6133554;23;20448;-77
2022/09/06 03:40:30;;;;;;;1.50;0.90;;;19.70;98.20;;;;;;6137181;23;20452;-77
2022/09/06 03:43:00;;;;;;;1.50;1.00;;;19.70;98.20;;;;;;6136566;23;20476;-77
2022/09/06 03:45:28;;;;;;;1.43;0.90;;;19.60;98.20;;;;;;6134101;23;20509;-78
2022/09/06 03:47:55;;;;;;;1.50;1.10;;;19.60;98.20;;;;;;6136127;23;20475;-78
2022/09/06 03:50:22;;;;;;;1.50;1.00;;;19.50;98.20;;;;;;6133972;23;20418;-78
2022/09/06 03:52:49;;;;;;;1.40;0.90;;;19.50;98.20;;;;;;6130495;23;20455;-79
2022/09/06 03:55:16;;;;;;;1.47;0.90;;;19.50;98.20;;;;;;6130611;23;20500;-77
2022/09/06 03:57:44;;;;;;;1.40;0.90;;;19.50;98.20;;;;;;6133308;23;20471;-78
2022/09/06 04:00:13;;;;;;;1.50;1.10;;;19.60;98.20;;;;;;6125488;23;20451;-77
2022/09/06 04:02:40;;;;;;;1.50;0.90;;;19.60;98.20;;;;;;6131767;23;21004;-77
2022/09/06 04:05:12;;;;;;;1.50;0.90;;;19.60;98.20;;;;;;6126015;23;20465;-79
2022/09/06 04:07:39;;;;;;;1.50;0.90;;;19.70;98.20;;;;;;6131945;23;20449;-79
2022/09/06 04:10:07;;;;;;;1.50;0.90;;;19.70;98.20;;;;;;6126723;23;20432;-79
2022/09/06 04:12:34;;;;;;;1.47;0.90;;;19.70;98.20;;;;;;6129501;23;21003;-78
2022/09/06 04:15:03;;;;;;;1.43;0.90;;;19.80;98.20;;;;;;6136418;23;20442;-78
2022/09/06 04:17:30;;;;;;;1.40;0.90;;;19.80;98.20;;;;;;6126730;23;20455;-79
2022/09/06 04:19:57;;;;;;;1.40;0.90;;;19.70;98.20;;;;;;6124540;23;20450;-78
2022/09/06 04:23:02;;;;;;;1.50;0.93;;;19.70;98.20;;;;;;6129362;23;20547;-78
2022/09/06 04:25:30;;;;;;;1.43;0.90;;;19.70;98.20;;;;;;6120530;23;21174;-79
2022/09/06 04:27:57;;;;;;;1.50;0.90;;;19.70;98.20;;;;;;6131987;23;20540;-79
2022/09/06 04:30:25;;;;;;;1.40;0.90;;;19.70;98.20;;;;;;6123343;23;21151;-80
2022/09/06 04:32:52;;;;;;;1.50;1.10;;;19.70;98.20;;;;;;6129514;23;20504;-79
2022/09/06 04:35:20;;;;;;;1.50;0.90;;;19.70;98.20;;;;;;6122874;23;20450;-78
2022/09/06 04:37:52;;;;;;;1.47;0.90;;;19.70;98.20;;;;;;6133837;23;20475;-80
2022/09/06 04:40:19;;;;;;;1.47;0.90;;;19.70;98.20;;;;;;6123592;23;20477;-79
2022/09/06 04:42:46;;;;;;;1.47;0.90;;;19.60;98.20;;;;;;6138108;23;21109;-78
2022/09/06 04:45:14;;;;;;;1.40;0.90;;;19.60;98.20;;;;;;6120778;23;20445;-79
2022/09/06 04:47:43;;;;;;;1.50;0.90;;;19.60;98.20;;;;;;6131654;23;20639;-78
2022/09/06 04:50:10;;;;;;;1.47;0.90;;;19.60;98.20;;;;;;6135071;23;20421;-80
2022/09/06 04:52:38;;;;;;;1.47;0.90;;;19.50;98.20;;;;;;6129664;23;20448;-80
2022/09/06 04:55:06;;;;;;;1.43;0.90;;;19.50;98.20;;;;;;6127964;23;20590;-81
2022/09/06 04:57:33;;;;;;;1.50;0.90;;;19.40;98.20;;;;;;6114411;23;20481;-78
2022/09/06 05:00:05;;;;;;;1.50;0.90;;;19.40;98.20;;;;;;6126976;23;20457;-78
2022/09/06 05:02:34;;;;;;;1.47;0.90;;;19.40;98.20;;;;;;6110897;23;20457;-79
2022/09/06 05:05:06;;;;;;;1.50;0.90;;;19.40;98.20;;;;;;6127776;23;20461;-78
2022/09/06 05:07:41;;;;;;;1.40;0.90;;;19.40;98.20;;;;;;6138455;23;20593;-79
2022/09/06 05:10:09;;;;;;;1.40;0.90;;;19.30;98.20;;;;;;6145330;23;20412;-78
2022/09/06 05:12:36;;;;;;;1.43;0.90;;;19.30;98.20;;;;;;6145061;23;20452;-79
2022/09/06 05:15:13;;;;;;;1.47;0.90;;;19.30;98.20;;;;;;6143099;23;21095;-79
2022/09/06 05:23:16;;;;;;;1.50;0.90;;;19.20;98.20;;;;;;6126122;23;20457;-79
2022/09/06 05:25:47;;;;;;;1.47;0.90;;;19.20;98.20;;;;;;6104415;23;20439;-79
2022/09/06 05:28:18;;;;;;;1.47;0.90;;;19.20;98.20;;;;;;6082350;23;20430;-79
2022/09/06 05:30:46;;;;;;;1.47;0.90;;;19.30;98.20;;;;;;6099127;23;20494;-78
2022/09/06 05:33:19;;;;;;;1.50;0.90;;;19.30;98.20;;;;;;6081514;23;20442;-80
2022/09/06 05:35:55;;;;;;;1.47;0.90;;;19.30;98.20;;;;;;6100962;23;20407;-80
2022/09/06 05:39:04;;;;;;;1.40;0.93;;;19.30;98.20;;;;;;6092907;23;20429;-81
2022/09/06 05:41:33;;;;;;;1.47;0.90;;;19.30;98.20;;;;;;6051061;23;20453;-79
2022/09/06 05:44:14;;;;;;;1.50;0.93;;;19.40;98.20;;;;;;6119924;23;20450;-78
2022/09/06 05:46:48;;;;;;;1.47;0.90;;;19.40;98.20;;;;;;6105284;23;20472;-79
2022/09/06 05:49:18;;;;;;;1.50;0.90;;;19.40;98.20;;;;;;6127002;23;20427;-79
2022/09/06 05:51:51;;;;;;;1.43;0.90;;;19.50;98.20;;;;;;6095684;23;20454;-79
2022/09/06 05:54:18;;;;;;;1.47;0.90;;;19.50;98.20;;;;;;6116345;23;20496;-78
2022/09/06 05:56:50;;;;;;;1.47;0.90;;;19.60;98.20;;;;;;6096177;23;20618;-77
2022/09/06 05:59:23;;;;;;;1.43;0.90;;;19.70;98.20;;;;;;6111288;23;20510;-79
2022/09/06 06:01:53;;;;;;;1.50;1.00;;;19.70;98.20;;;;;;6098930;23;20454;-77
2022/09/06 06:04:21;;;;;;;1.40;0.90;;;19.80;98.20;;;;;;6123742;23;20490;-77
2022/09/06 06:06:54;;;;;;;1.40;0.90;;;20.00;98.20;;;;;;6104563;23;21000;-78
2022/09/06 06:09:30;;;;;;;1.47;0.90;;;20.10;98.20;;;;;;6113189;23;21069;-78
2022/09/06 06:11:59;;;;;;;1.47;0.90;;;20.30;98.20;;;;;;6099618;23;20529;-78
2022/09/06 06:14:38;;;;;;;1.50;0.90;;;20.50;98.20;;;;;;6111827;23;20498;-77
2022/09/06 06:17:20;;;;;;;1.47;1.00;;;20.60;98.20;;;;;;6106189;23;20460;-79
2022/09/06 06:19:48;;;;;;;7.23;3.70;;;20.90;98.20;;;;;;6116641;23;20473;-75
2022/09/06 06:22:20;;;;;;;1.60;1.33;;;21.10;98.20;;;;;;6108675;23;20485;-76
2022/09/06 06:24:48;;;;;;;1.50;0.90;;;21.30;98.20;;;;;;6108188;23;20403;-77
2022/09/06 06:27:33;;;;;;;1.47;1.00;;;21.40;98.20;;;;;;6103503;23;20454;-78
2022/09/06 06:30:01;;;;;;;1.47;0.90;;;21.50;98.20;;;;;;6114137;23;20625;-78
2022/09/06 06:32:37;;;;;;;1.43;0.90;;;21.70;98.20;;;;;;6092954;23;20449;-78
2022/09/06 06:35:36;;;;;;;1.43;0.90;;;21.80;98.20;;;;;;6108393;23;20489;-78
2022/09/06 06:38:10;;;;;;;1.47;0.90;;;21.90;98.20;;;;;;6117132;23;20450;-77
2022/09/06 06:40:55;;;;;;;1.50;0.90;;;22.10;98.20;;;;;;6108183;23;20503;-78
2022/09/06 06:43:35;;;;;;;1.47;0.90;;;22.30;98.20;;;;;;6081355;23;20497;-79
2022/09/06 06:46:02;;;;;;;1.50;0.90;;;22.30;98.20;;;;;;6091426;23;20422;-77
2022/09/06 06:48:31;;;;;;;1.50;0.90;;;22.50;98.20;;;;;;6132915;23;20430;-77
2022/09/06 06:50:58;;;;;;;1.47;0.90;;;22.70;98.20;;;;;;6090729;23;20498;-77
2022/09/06 06:53:28;;;;;;;1.47;0.90;;;22.90;98.20;;;;;;6122301;23;20419;-76
2022/09/06 06:56:33;;;;;;;1.43;0.90;;;22.90;98.20;;;;;;6099539;23;20518;-75
2022/09/06 06:59:05;;;;;;;1.50;0.90;;;22.90;97.80;;;;;;6118696;23;20414;-75
2022/09/06 07:01:34;;;;;;;1.50;0.90;;;22.90;98.20;;;;;;6102984;23;20453;-76
2022/09/06 07:04:22;;;;;;;1.43;0.90;;;23.00;98.20;;;;;;6126582;23;20423;-76
2022/09/06 07:07:15;;;;;;;1.50;0.90;;;23.00;97.10;;;;;;6099118;23;20968;-76
2022/09/06 07:09:45;;;;;;;1.50;0.90;;;23.10;98.20;;;;;;6117027;23;20512;-76
2022/09/06 07:15:09;;;;;;;1.47;0.90;;;23.50;96.40;;;;;;6053767;23;20445;-75
2022/09/06 07:20:20;;;;;;;1.50;0.90;;;23.70;95.30;;;;;;6097077;23;20874;-76
2022/09/06 07:22:48;;;;;;;1.47;0.90;;;23.90;95.50;;;;;;6109792;23;20473;-76
2022/09/06 07:25:20;;;;;;;1.47;0.90;;;24.00;95.60;;;;;;6112962;23;20426;-77
2022/09/06 07:27:48;;;;;;;1.50;0.90;;;24.30;92.70;;;;;;6112802;23;20781;-76
2022/09/06 07:30:18;;;;;;;1.47;0.90;;;24.40;93.10;;;;;;6099820;23;20914;-76
2022/09/06 07:33:07;;;;;;;1.40;0.80;;;24.50;93.30;;;;;;6104937;23;20453;-76
2022/09/06 07:35:35;;;;;;;1.50;0.90;;;24.50;92.30;;;;;;6096816;23;20733;-76
2022/09/06 07:38:03;;;;;;;1.50;0.90;;;24.60;91.50;;;;;;6110815;23;20453;-75
2022/09/06 07:40:31;;;;;;;1.47;0.80;;;24.80;92.30;;;;;;6108297;23;20510;-75
2022/09/06 07:43:02;;;;;;;1.47;0.87;;;25.00;90.60;;;;;;6105136;23;20462;-76
2022/09/06 07:45:31;;;;;;;1.50;0.87;;;25.00;89.50;;;;;;6097646;23;20503;-74
2022/09/06 07:58:01;;;;;;;1.50;0.90;;;25.20;87.90;;;;;;6028107;23;20512;-92
2022/09/06 08:00:47;;;;;;;1.50;0.90;;;25.40;86.40;;;;;;6037884;23;20456;-90
2022/09/06 08:03:18;;;;;;;1.50;0.80;;;25.40;85.40;;;;;;6019243;23;20434;-91
2022/09/06 08:05:49;;;;;;;1.50;1.10;;;25.30;86.60;;;;;;6107286;23;20427;-90
2022/09/06 08:08:17;;;;;;;1.47;0.90;;;25.30;86.00;;;;;;6079852;23;20453;-89
2022/09/06 08:11:10;;;;;;;;;;;;;;;;;;;;;
2022/09/06 08:13:47;;;;;;;1.47;0.83;;;25.70;84.70;;;;;;6096930;23;20415;-89
2022/09/06 08:16:31;;;;;;;1.50;1.00;;;25.80;85.40;;;;;;6111066;23;20441;-90
2022/09/06 08:19:07;;;;;;;1.50;1.10;;;26.00;83.20;;;;;;6132582;23;20414;-90
2022/09/06 08:24:06;;;;;;;1.83;1.27;;;26.10;83.70;;;;;;6131690;23;20478;-77
2022/09/06 08:26:39;;;;;;;1.50;0.90;;;26.10;82.40;;;;;;6102124;23;20452;-76
2022/09/06 08:29:13;;;;;;;2.20;1.10;;;26.10;82.80;;;;;;6115145;23;20438;-77
2022/09/06 08:32:02;;;;;;;1.43;0.80;;;26.30;83.70;;;;;;6095209;23;20445;-76
2022/09/06 08:34:39;;;;;;;1.50;0.80;;;26.50;82.10;;;;;;6111485;23;20423;-78
2022/09/06 08:37:06;;;;;;;1.47;0.80;;;26.60;81.60;;;;;;6089352;23;20457;-77
2022/09/06 08:39:58;;;;;;;1.47;0.80;;;26.60;81.60;;;;;;6104122;23;20455;-77
2022/09/06 08:42:46;;;;;;;1.47;0.90;;;26.70;80.90;;;;;;6090467;23;20524;-78
2022/09/06 08:45:20;;;;;;;1.50;0.80;;;26.90;80.50;;;;;;6111545;23;20422;-79
2022/09/06 08:47:54;;;;;;;1.47;0.90;;;27.00;80.80;;;;;;6088693;23;20458;-78
2022/09/06 08:50:40;;;;;;;1.60;1.00;;;27.10;79.70;;;;;;6113805;23;20545;-79
2022/09/06 08:53:20;;;;;;;1.50;1.00;;;27.30;79.00;;;;;;6075343;23;20472;-79
2022/09/06 08:56:21;;;;;;;1.50;0.80;;;27.50;78.20;;;;;;6106623;23;20426;-77
2022/09/06 08:59:21;;;;;;;1.47;0.80;;;27.60;77.50;;;;;;6084852;23;20429;-78
2022/09/06 09:05:33;;;;;;;1.50;0.80;;;27.70;78.00;;;;;;6105781;23;21115;-78
2022/09/06 09:08:57;;;;;;;1.47;0.80;;;27.80;77.30;;;;;;6013283;23;20496;-78
2022/09/06 09:11:32;;;;;;;1.47;0.80;;;28.00;76.40;;;;;;5990860;23;20876;-77
2022/09/06 09:14:16;;;;;;;1.50;0.80;;;28.20;76.60;;;;;;6053214;23;20419;-78
2022/09/06 09:20:04;;;;;;;1.50;0.80;;;28.50;74.30;;;;;;6138630;23;20477;-78
2022/09/06 09:25:52;;;;;;;1.50;0.80;;;28.90;73.70;;;;;;6062615;23;20413;-78
2022/09/06 09:28:27;;;;;;;1.40;0.80;;;29.10;71.60;;;;;;6087275;23;20912;-80
2022/09/06 09:31:46;;;;;;;1.40;0.80;;;29.20;72.10;;;;;;6096913;23;20425;-78
2022/09/06 09:34:32;;;;;;;1.40;0.80;;;29.30;72.00;;;;;;6011619;23;20435;-76
2022/09/06 09:40:42;;;;;;;1.40;0.80;;;29.70;71.20;;;;;;5970009;24;20438;-79
2022/09/06 09:43:43;;;;;;;1.43;0.80;;;29.70;71.50;;;;;;5948115;24;20485;-79
2022/09/06 09:50:03;;;;;;;1.40;0.80;;;30.00;70.90;;;;;;6078313;23;20514;-78
2022/09/06 09:52:39;;;;;;;1.43;0.80;;;30.30;70.50;;;;;;6088868;23;21001;-78
2022/09/06 09:55:13;;;;;;;1.43;0.80;;;30.70;69.30;;;;;;6110213;23;20436;-77
2022/09/06 10:00:48;;;;;;;1.50;0.80;;;31.20;68.20;;;;;;6077234;23;20416;-77
2022/09/06 10:03:27;;;;;;;1.43;0.80;;;31.50;68.10;;;;;;6082314;23;20695;-79
2022/09/06 10:05:59;;;;;;;1.47;0.80;;;31.50;67.00;;;;;;6089630;23;20695;-78
2022/09/06 10:08:31;;;;;;;1.43;0.80;;;31.70;67.10;;;;;;6109990;23;20422;-78
2022/09/06 10:10:58;;;;;;;1.43;0.80;;;31.70;65.80;;;;;;6083718;23;20419;-79
2022/09/06 10:13:28;;;;;;;1.43;0.80;;;31.60;67.40;;;;;;6103278;23;20418;-78
2022/09/06 10:15:58;;;;;;;1.50;0.80;;;31.70;68.20;;;;;;6096480;23;20755;-79
2022/09/06 10:18:34;;;;;;;1.40;0.80;;;31.80;65.50;;;;;;6105374;23;20426;-79
2022/09/06 10:21:06;;;;;;;1.43;0.80;;;31.90;65.60;;;;;;6093228;23;20763;-79
2022/09/06 10:26:54;;;;;;;1.43;0.80;;;32.30;65.10;;;;;;6083323;23;20501;-78
2022/09/06 10:32:40;;;;;;;1.47;0.80;;;32.80;64.80;;;;;;6082781;23;20450;-78
2022/09/06 10:35:56;;;;;;;1.43;0.83;;;32.90;63.40;;;;;;6101422;23;20430;-77
2022/09/06 10:38:37;;;;;;;1.43;0.80;;;33.00;63.50;;;;;;6060896;23;20426;-77
2022/09/06 10:41:25;;;;;;;1.43;0.80;;;33.10;63.80;;;;;;6084584;23;20772;-79
2022/09/06 10:44:05;;;;;;;1.47;0.80;;;33.30;64.00;;;;;;6102267;23;21027;-76
2022/09/06 10:46:36;;;;;;;1.43;0.80;;;33.30;63.10;;;;;;6084326;23;20456;-77
2022/09/06 10:49:12;;;;;;;1.43;0.80;;;33.40;62.90;;;;;;6103346;23;20198;-78
2022/09/06 10:51:44;;;;;;;1.47;0.80;;;33.50;62.80;;;;;;6094258;23;20608;-78
2022/09/06 10:54:22;;;;;;;1.50;0.90;;;33.60;63.60;;;;;;6108314;23;20174;-76
2022/09/06 10:56:56;;;;;;;1.43;0.80;;;33.70;63.20;;;;;;6090453;23;20206;-77
2022/09/06 10:59:28;;;;;;;1.50;0.80;;;33.90;62.50;;;;;;6109660;23;20277;-78
2022/09/06 11:02:36;;;;;;;1.43;0.80;;;33.90;63.00;;;;;;6083212;23;20313;-77
2022/09/06 11:05:08;;;;;;;3.20;1.93;;;34.00;63.00;;;;;;6109432;23;20181;-76
2022/09/06 11:07:42;;;;;;;1.43;0.80;;;34.10;62.00;;;;;;6088529;23;20230;-78
2022/09/06 11:10:20;;;;;;;1.40;0.80;;;34.20;61.30;;;;;;6110495;23;20198;-77
2022/09/06 11:15:46;;;;;;;1.43;0.80;;;34.40;60.30;;;;;;6098783;23;20258;-78
2022/09/06 11:18:24;;;;;;;1.43;0.80;;;34.30;61.30;;;;;;6086475;23;20213;-77
2022/09/06 11:21:13;;;;;;;1.43;0.80;;;34.20;61.80;;;;;;6087995;23;20174;-77
2022/09/06 11:24:00;;;;;;;1.43;0.80;;;34.20;63.00;;;;;;6108723;23;20197;-78
2022/09/06 11:27:01;;;;;;;1.60;0.90;;;34.30;61.70;;;;;;6094553;23;20674;-77
2022/09/06 11:29:38;;;;;;;1.40;0.80;;;34.40;61.60;;;;;;6084247;23;20232;-78
2022/09/06 11:32:31;;;;;;;1.40;0.80;;;34.50;61.00;;;;;;6092922;23;20304;-78
2022/09/06 11:35:19;;;;;;;1.40;0.80;;;34.40;61.90;;;;;;6113103;23;20182;-76
2022/09/06 11:38:19;;;;;;;1.40;0.80;;;34.40;61.50;;;;;;6090082;23;20241;-77
2022/09/06 11:44:02;;;;;;;1.48;0.80;;;34.70;61.90;;;;;;6083566;23;20230;-77
2022/09/06 11:46:58;;;;;;;1.40;0.80;;;34.80;62.30;;;;;;6084818;23;20249;-76
2022/09/06 11:53:04;;;;;;;1.40;0.80;;;35.00;62.40;;;;;;6086271;23;20252;-77
2022/09/06 11:55:47;;;;;;;1.40;0.80;;;35.00;61.80;;;;;;6103381;23;20178;-77
2022/09/06 11:58:29;;;;;;;1.40;0.80;;;35.20;61.50;;;;;;6088840;23;20198;-77
2022/09/06 12:01:33;;;;;;;1.40;0.80;;;35.20;61.90;;;;;;6099224;23;20707;-77
2022/09/06 12:04:14;;;;;;;1.40;0.80;;;35.10;60.80;;;;;;6100063;23;20198;-78
2022/09/06 12:07:03;;;;;;;1.40;0.80;;;35.20;60.90;;;;;;6091656;23;20224;-77
2022/09/06 12:09:41;;;;;;;1.47;0.80;;;35.20;60.80;;;;;;6102674;23;20680;-79
2022/09/06 12:12:31;;;;;;;1.40;0.80;;;35.10;60.70;;;;;;6092932;23;20264;-77
2022/09/06 12:15:21;;;;;;;1.40;0.80;;;35.20;61.70;;;;;;6102423;23;20186;-76
2022/09/06 12:18:04;;;;;;;1.95;1.20;;;35.30;60.60;;;;;;6089042;23;20313;-78
2022/09/06 12:21:04;;;;;;;1.40;0.80;;;35.30;60.90;;;;;;6101608;23;20253;-77
2022/09/06 12:23:42;;;;;;;1.40;0.80;;;35.40;59.50;;;;;;6087475;23;20232;-76
2022/09/06 12:26:13;;;;;;;1.50;1.10;;;35.20;61.00;;;;;;6097073;23;20224;-77
2022/09/06 12:29:19;;;;;;;1.40;0.80;;;35.30;60.70;;;;;;6113364;23;20446;-76
2022/09/06 12:31:57;;;;;;;1.40;0.80;;;35.30;61.10;;;;;;6042472;23;20218;-77
2022/09/06 12:34:34;;;;;;;1.40;0.80;;;35.40;60.60;;;;;;6102860;23;20206;-78
2022/09/06 12:37:08;;;;;;;1.40;0.80;;;35.60;61.20;;;;;;6092880;23;20691;-77
2022/09/06 12:39:57;;;;;;;1.40;0.80;;;35.70;60.60;;;;;;6113106;23;20598;-79
2022/09/06 12:42:26;;;;;;;1.50;1.15;;;35.70;60.00;;;;;;6074541;23;20217;-78
2022/09/06 12:45:11;;;;;;;1.40;0.80;;;35.40;61.40;;;;;;6104183;23;20182;-78
2022/09/06 12:48:12;;;;;;;1.40;0.80;;;35.40;60.70;;;;;;6089689;23;20237;-78
2022/09/06 12:51:04;;;;;;;1.40;0.80;;;35.60;60.40;;;;;;6112454;23;20162;-75
2022/09/06 12:53:49;;;;;;;1.40;0.80;;;35.60;60.10;;;;;;6087603;23;20209;-77
2022/09/06 12:56:21;;;;;;;1.40;0.80;;;35.50;60.40;;;;;;6090567;23;20276;-78
2022/09/06 12:59:05;;;;;;;;;;;;;;;;;;;;;
2022/09/06 13:01:36;;;;;;;2.78;2.45;;;35.30;60.30;;;;;;6084381;23;20209;-78
2022/09/06 13:04:08;;;;;;;1.40;0.80;;;35.40;58.40;;;;;;6110181;23;20185;-77
2022/09/06 13:06:40;;;;;;;1.40;0.90;;;35.50;56.80;;;;;;6097292;23;20612;-79
2022/09/06 13:09:11;;;;;;;1.40;0.80;;;35.60;57.80;;;;;;6112350;23;20206;-76
2022/09/06 13:12:05;;;;;;;1.40;0.80;;;35.60;58.10;;;;;;6088720;23;20262;-78
2022/09/06 13:14:34;;;;;;;1.40;0.80;;;35.80;57.60;;;;;;6112581;23;20193;-78
2022/09/06 13:17:04;;;;;;;1.40;0.82;;;35.80;58.30;;;;;;6089658;23;20237;-78
2022/09/06 13:19:33;;;;;;;1.40;0.80;;;35.80;57.90;;;;;;6113012;23;20198;-78
2022/09/06 13:22:09;;;;;;;1.40;0.80;;;35.70;57.90;;;;;;6093806;23;20242;-77
2022/09/06 13:24:47;;;;;;;1.40;0.80;;;35.60;58.00;;;;;;6114230;23;20170;-77
2022/09/06 13:27:35;;;;;;;1.40;0.80;;;35.60;58.50;;;;;;6087503;23;20284;-78
2022/09/06 13:30:05;;;;;;;1.40;0.80;;;35.60;58.00;;;;;;6112191;23;20535;-77
2022/09/06 13:32:47;;;;;;;1.40;0.80;;;35.40;56.70;;;;;;6091282;23;20216;-76
2022/09/06 13:35:37;;;;;;;1.40;0.80;;;35.30;57.20;;;;;;6114248;23;20178;-77
2022/09/06 13:41:56;;;;;;;1.40;0.80;;;35.00;59.10;;;;;;5938334;24;20257;-77
2022/09/06 13:44:35;;;;;;;1.40;0.80;;;35.20;57.80;;;;;;5956038;24;20617;-78
2022/09/06 13:47:45;;;;;;;1.40;0.80;;;35.30;57.90;;;;;;6039866;23;20210;-78
2022/09/06 13:50:12;;;;;;;1.40;0.80;;;35.30;56.80;;;;;;6020720;23;20196;-77
2022/09/06 13:53:07;;;;;;;1.40;0.80;;;35.40;55.10;;;;;;6073603;23;20209;-77
2022/09/06 13:55:40;;;;;;;1.40;0.80;;;35.40;54.40;;;;;;6075618;23;20209;-77
2022/09/06 13:58:11;;;;;;;1.40;0.80;;;35.40;54.50;;;;;;6091113;23;20805;-80
2022/09/06 14:00:40;;;;;;;1.40;0.80;;;35.50;54.70;;;;;;6104492;23;20182;-79
2022/09/06 14:03:15;;;;;;;1.40;0.80;;;35.60;53.70;;;;;;6089718;23;20273;-78
2022/09/06 14:05:49;;;;;;;1.40;0.80;;;35.60;53.70;;;;;;6106424;23;20241;-79
2022/09/06 14:08:18;;;;;;;1.40;0.80;;;35.70;52.50;;;;;;6089334;23;20198;-78
2022/09/06 14:10:48;;;;;;;1.40;0.80;;;35.70;52.10;;;;;;6113850;23;20186;-78
2022/09/06 14:13:17;;;;;;;1.40;0.80;;;35.50;54.10;;;;;;6088960;23;20228;-78
2022/09/06 14:15:50;;;;;;;1.40;0.80;;;35.40;54.10;;;;;;6115942;23;20181;-78
2022/09/06 14:18:35;;;;;;;1.40;0.80;;;35.40;53.70;;;;;;6088828;23;20201;-77
2022/09/06 14:21:10;;;;;;;1.50;1.30;;;35.40;51.80;;;;;;6099142;23;20206;-78
2022/09/06 14:23:55;;;;;;;1.40;0.80;;;35.40;53.00;;;;;;6101819;23;20205;-77
2022/09/06 14:26:28;;;;;;;1.40;0.80;;;35.40;50.40;;;;;;6089386;23;20645;-79
2022/09/06 14:28:59;;;;;;;1.40;0.80;;;35.40;48.80;;;;;;6113018;23;20202;-78
2022/09/06 14:31:29;;;;;;;1.38;0.80;;;35.50;48.90;;;;;;6097796;23;20213;-78
2022/09/06 14:34:00;;;;;;;1.40;0.80;;;35.50;48.70;;;;;;6112153;23;20178;-77
2022/09/06 14:36:31;;;;;;;1.40;0.80;;;35.60;48.90;;;;;;6097399;23;20217;-78
2022/09/06 14:39:01;;;;;;;1.40;0.80;;;35.60;49.70;;;;;;6112733;23;20665;-78
2022/09/06 14:41:29;;;;;;;1.40;0.80;;;35.60;49.00;;;;;;6087119;23;20626;-79